Ricardo Xhaka

Recruteur en chef - Grasshopper
3 Déc 2028
Dimanche
Processus

Personnalité

Adaptabilité (10) Ambition (5) Controverse (11) Loyauté (6) Pression (6) Professionnalisme (6) Sportivité (20) Tempérament (4)

Profil

Style d'entraînement Démocratique
Diplôme Continental C
Détermination 9
Gestion des joueurs 11
Motivation 9
Discipline 6
Satisfaction professionnelle
100%
Fatigue
0%
Rôle Recruteur en chef
Salaire 28.4K p/s
Contrat 14.03.2030

Performance

Comportement Bon
Efficacité de l'entraînement
45%
Développement des joueurs
30%
Prévention des blessures
30%
Mise en place tactique
45%

Événements récents

A participé à une réunion de recrutement maintenant
A participé à une réunion de recrutement maintenant
Anniversaire 7j
A participé à une réunion de recrutement 7j
A participé à une réunion de recrutement 7j
A recommandé une cible de transfert 7j
A recommandé une cible de transfert 7j
A recommandé une cible de transfert 14j

Suivi en cours

158
Joueur Club Statut Capacité Confiance Observé Dernière observation Dernier vote
Sergio Córdova Young Boys Perdu 112 / 127 72% 1 24.07.2028 -
Jake Evans Crewe Alexandra Actif 109 / 117 40% 4 30.05.2028 -
Eli Junior Kroupi Bournemouth Actif 140 / 150 40% 6 30.05.2028 -
Tyler Fletcher Rotherham United Actif 108 / 127 40% 2 30.05.2028 -
Ryan McAidoo Oldham Athletic Actif 118 / 119 40% 6 29.05.2028 -
Kerim Alajbegović Modena Actif 139 / 145 40% 4 29.05.2028 -
André Miranda Porto Actif 120 / 119 40% 2 28.05.2028 -
Gabe Forsyth Colchester United Actif 116 / 117 40% 6 27.05.2028 -
Oskar Pietuszewski Estrela da Amadora Actif 136 / 138 40% 4 27.05.2028 -
Rio Ngumoha Plymouth Argyle Actif 142 / 152 40% 4 27.05.2028 -
Lennart Karl TSG Hoffenheim Actif 139 / 140 40% 7 25.05.2028 -
Fletcher Boyd Accrington Stanley Actif 99 / 106 40% 1 25.05.2028 -
Luca Williams-Barnett Walsall Actif 123 / 124 40% 9 23.05.2028 -
Suleman Sani Werder Bremen Actif 137 / 140 40% 4 21.05.2028 -
Honest Ahanor Atalanta Actif 139 / 135 40% 4 21.05.2028 -
Ben Broggio Mansfield Town Actif 107 / 108 40% 6 20.05.2028 -
Jorge Salinas Racing Santander Actif 130 / 139 40% 4 19.05.2028 -
Amin Nabizada Exeter City Actif 112 / 124 40% 6 19.05.2028 -
Gabriel Mec Feirense Actif 131 / 131 40% 6 17.05.2028 -
Mustafa Hekimoğlu Antalyaspor Actif 128 / 140 40% 3 16.05.2028 -
Ryan Kavuma-McQueen Accrington Stanley Actif 123 / 135 40% 7 14.05.2028 -
Christos Mouzakitis Hull City Actif 142 / 136 40% 3 13.05.2028 -
Shea Lacey Crystal Palace Actif 136 / 142 40% 1 13.05.2028 -
Aarón Ochoa Málaga Actif 117 / 120 40% 5 10.05.2028 -
Babis Kostoulas Oxford United Actif 145 / 152 40% 6 10.05.2028 -
Leo Pecover Swindon Town Actif 101 / 107 40% 2 10.05.2028 -
Josh Nichols Oldham Athletic Actif 116 / 130 40% 5 05.05.2028 -
Omar Khedr Gillingham Actif 115 / 113 40% 2 05.05.2028 -
Otto Stange Borussia Mönchengladbach Actif 130 / 122 40% 3 04.05.2028 -
Oscar Schwartau Norwich City Actif 129 / 132 40% 6 01.05.2028 -
Ibrahim Fullah Charlton Athletic Actif 125 / 130 40% 6 01.05.2028 -
Ryunosuke Sato Eibar Actif 130 / 139 40% 4 25.04.2028 -
Luca Meirelles Kudrivka Actif 132 / 114 40% 1 23.04.2028 -
Rémi Himbert AC Ajaccio Actif 118 / 126 40% 3 22.04.2028 -
Igor Tyjon Barrow AFC Actif 113 / 116 40% 4 22.04.2028 -
Siyabonga Mabena Bidvest Wits Actif 112 / 123 40% 2 18.04.2028 -
Trey Nyoni Rotherham United Actif 136 / 143 40% 4 13.04.2028 -
Gorka Gorosabel Real Sociedad Actif 117 / 129 40% 3 13.04.2028 -
Henrique Carmo Sochi Actif 131 / 141 40% 1 10.04.2028 -
Eduardo Fernandes Benfica Actif 122 / 128 40% 1 07.04.2028 -
Gomolemo Kekana Maritzburg United Actif 112 / 117 40% 5 12.03.2028 -
Nana Nuhu WAFA Actif 97 / 82 40% 1 04.03.2028 -
Matias Siltanen Malmo FF Actif 126 / 113 40% 1 01.03.2028 -
Lander Astiazarán Real Sociedad Actif 107 / 116 40% 2 28.02.2028 -
Ruben Ramos LA Galaxy Actif 99 / 101 40% 1 28.02.2028 -
Esquerdinha Notts County Actif 123 / 126 40% 1 17.02.2028 -
Lewis Orford Crewe Alexandra Actif 114 / 113 40% 1 12.02.2028 -
Christ Wawa Gefle Actif 93 / 125 40% 1 08.02.2028 -
Olivier Mambwa Young Boys Perdu 112 / 118 40% 1 24.01.2028 -
Juan Camilo Córdoba Deportivo Pereira Actif 89 / 86 40% 1 05.01.2028 -
Josh Acheampong Everton Actif 136 / 138 40% 1 05.01.2028 -
Mao Hosoya Santos Actif 134 / 135 67% 1 01.01.2028 Approuver
Daniel Idoko Ikorodu City Actif 85 / 109 40% 1 31.12.2027 -
Zane Albarus Shrewsbury Town Actif 104 / 101 40% 1 31.12.2027 -
Federico Matarán Giana Erminio Actif 91 / 110 40% 2 28.06.2027 -
Sascha Britschgi AC Milan Actif 116 / 128 40% 2 28.06.2027 -
Godwin Oham Warri Wolves Actif 85 / 85 40% 1 28.06.2027 -
Tommaso Cecotti Carpi Actif 95 / 91 40% 1 03.06.2027 -
Brooke Norton-Cuffy Hull City Actif 131 / 129 40% 7 28.05.2027 -
Kristoffer Lund Birmingham Actif 123 / 124 40% 1 28.05.2027 -
Romelle Donovan Brentford Actif 123 / 132 40% 1 28.05.2027 -
Riley Owen Stevenage Actif 99 / 117 40% 1 27.05.2027 -
Toby Collyer West Bromwich Albion Actif 129 / 137 40% 6 25.05.2027 -
Milan van Ewijk Coventry City Actif 134 / 131 40% 5 23.05.2027 -
Calum Agius Crewe Alexandra Actif 91 / 96 40% 2 23.05.2027 -
Lewis Bate Stockport County Actif 124 / 112 40% 1 23.05.2027 -
Ethan Pye Stockport County Actif 113 / 127 40% 4 21.05.2027 -
Jack Currie Oxford United Actif 122 / 126 40% 3 21.05.2027 -
Leo Castledine Middlesbrough Actif 128 / 134 40% 3 21.05.2027 -
Sanel Šaljić Austria Wien Actif 114 / 127 40% 1 21.05.2027 -
Florentino Luís Ipswich Town Actif 146 / 149 40% 7 19.05.2027 Observer
Joel Bagan Cardiff City Actif 110 / 112 40% 9 19.05.2027 -
Max Bird Birmingham Actif 138 / 139 40% 5 19.05.2027 -
Welington Southampton Actif 131 / 136 40% 2 18.05.2027 -
Alfie Gilchrist West Bromwich Albion Actif 123 / 131 40% 1 18.05.2027 -
Shea Charles Southampton Actif 130 / 137 40% 4 15.05.2027 -
Bosun Lawal Stoke City Actif 131 / 137 40% 6 15.05.2027 -
Dennis Cirkin Queens Park Rangers Actif 135 / 136 40% 4 13.05.2027 -
Samuele di Benedetto Twente Actif 119 / 127 40% 3 13.05.2027 -
Víctor Guzmán Sporting CP Actif 94 / 102 40% 2 13.05.2027 -
Gabriele Bertolini Vicenza Actif 102 / 109 40% 3 12.05.2027 -
Asanele Bonani Chippa United Actif 98 / 91 40% 1 12.05.2027 -
Lucas Ferreira Shakhtar Actif 130 / 122 40% 1 12.05.2027 -
Lewis Ferguson Bologna Actif 148 / 139 40% 4 10.05.2027 -
Darlin Yongwa Norwich City Actif 126 / 116 40% 4 09.05.2027 -
Jonathan Varane Queens Park Rangers Actif 121 / 132 40% 2 09.05.2027 -
Max Johnston Derby County Actif 130 / 120 40% 4 09.05.2027 -
Luke McNally Bristol City Actif 133 / 132 40% 8 06.05.2027 -
Lee Buchanan Sheffield Wednesday Actif 118 / 120 40% 2 06.05.2027 -
Pelle Mattsson Norwich City Actif 124 / 135 40% 2 06.05.2027 -
Jacob Greaves Ipswich Town Actif 142 / 128 40% 2 05.05.2027 -
Harry Clarke Preston Actif 130 / 136 40% 5 04.05.2027 -
Ryan Oné Sheffield United Actif 115 / 126 40% 1 04.05.2027 -
Terry Devlin Portsmouth Actif 121 / 114 40% 1 01.05.2027 -
Alexander Prass TSG Hoffenheim Actif 137 / 132 40% 5 30.04.2027 -
Zakaria El Ouahdi Hamburger SV Actif 130 / 137 40% 4 30.04.2027 -
Aidan Morris Middlesbrough Actif 126 / 120 40% 5 29.04.2027 -
Jacques Ekomié Wrexham Actif 133 / 141 40% 5 26.04.2027 -
Derry Murkin Derby County Actif 134 / 118 40% 2 26.04.2027 -
Bence Dárdai VfL Wolfsburg Actif 137 / 124 40% 1 26.04.2027 -
Oliver Skipp Leicester City Actif 126 / 125 40% 3 22.04.2027 -
Max Rosenfelder SC Freiburg Actif 130 / 142 40% 2 14.04.2027 -
Harrison Burrows Sheffield United Actif 120 / 132 40% 1 11.04.2027 -
Habib Diarra Sunderland Actif 141 / 136 40% 2 05.04.2027 -
Alfie Doughty Millwall Actif 125 / 121 40% 2 03.04.2027 -
Tariq Lamptey Queens Park Rangers Actif 137 / 132 40% 1 02.04.2027 -
Max Arfsten Middlesbrough Actif 122 / 136 40% 1 30.03.2027 -
Enrico Delprato Parma Actif 144 / 135 40% 2 22.03.2027 -
Japhet Tanganga Sheffield United Actif 137 / 141 40% 1 22.03.2027 -
Adis Jašić Zamalek Actif 124 / 113 40% 1 16.03.2027 -
Brian De Keersmaecker Oxford United Actif 118 / 113 40% 1 16.03.2027 -
Johnly Yfeko Exeter City Actif 105 / 112 40% 1 12.03.2027 -
Alessandro Buongiorno Cagliari Actif 149 / 154 40% 1 06.03.2027 -
Samuel Edozie Southampton Actif 131 / 133 40% 1 05.03.2027 -
Marcelo Allende Mamelodi Sundowns Actif 124 / 129 40% 2 04.03.2027 -
Juan Bezerra Zamalek Actif 123 / 128 40% 1 03.03.2027 -
Oswin Appollis Orlando Pirates Actif 135 / 123 40% 1 03.03.2027 -
Isaiah Jones Luton Town Actif 128 / 122 40% 3 02.03.2027 -
Ilyas Ansah Hull City Actif 137 / 143 40% 1 02.03.2027 -
Bazoumana Touré Newcastle United Actif 140 / 138 40% 1 02.03.2027 -
Peter Federico Gornik Zabrze Actif 134 / 133 40% 2 28.02.2027 -
Scott Twine Bristol City Actif 116 / 129 40% 1 28.02.2027 -
Jason Knight Bristol City Actif 134 / 122 40% 1 26.02.2027 -
Jack Rudoni Coventry City Actif 131 / 142 40% 2 25.02.2027 -
Cian Ashford Cardiff City Actif 123 / 113 40% 2 25.02.2027 -
Mohamed-Ali Cho Hull City Actif 134 / 127 40% 2 20.02.2027 -
Nathan Moriah-Welsh Mansfield Town Actif 106 / 111 40% 1 20.02.2027 -
Derensili Sanches Fernandes Huddersfield Town Actif 118 / 124 40% 1 14.02.2027 -
Nicolas Madsen Queens Park Rangers Actif 129 / 127 40% 1 14.02.2027 -
Armstrong Oko-Flex Levski Actif 119 / 110 40% 1 12.02.2027 -
Jack Diamond Stockport County Actif 120 / 127 40% 1 12.02.2027 -
Raoul Bellanova Atalanta Actif 144 / 148 40% 1 08.02.2027 -
Matt O'Riley Brighton Actif 142 / 142 40% 1 08.02.2027 -
Finn Azaz Southampton Actif 138 / 119 40% 2 06.02.2027 -
Serge-Philippe Raux-Yao Rapid Wien Actif 123 / 117 40% 3 04.02.2027 -
Petter Nosa Dahl Rapid Wien Actif 120 / 118 40% 1 12.01.2027 -
Peter Shalulile Mamelodi Sundowns Actif 134 / 115 40% 1 12.01.2027 -
Sampson Dweh Mallorca Actif 133 / 134 66% 1 01.01.2027 Approuver
Lee Tae-Suk Austria Wien Actif 126 / 130 40% 3 11.12.2026 -
Abubakr Barry Red Bull Salzburg Actif 124 / 126 40% 5 10.12.2026 -
Lebogang Manyama SuperSport United Actif 110 / 110 40% 1 10.12.2026 -
Cheick Mamadou Diabaté Wolfsberger AC Actif 123 / 131 40% 1 21.11.2026 -
Metinho Basel Actif 125 / 140 40% 1 20.11.2026 Plus d'infos
Dara O'Shea Ipswich Town Actif 132 / 128 40% 1 20.11.2026 -
Armin Gigović Young Boys Actif 129 / 123 40% 1 19.11.2026 -
Boris Matić Red Bull Salzburg Actif 122 / 114 40% 2 08.11.2026 -
Mattia Zanotti Young Boys Actif 125 / 138 40% 1 08.11.2026 -
Paul Koller Sturm Graz Actif 110 / 112 40% 2 07.11.2026 -
Carlo Boukhalfa St. Gallen Actif 116 / 114 40% 1 07.11.2026 -
Fabian Wohlmuth Wolfsberger AC Actif 108 / 112 40% 1 05.11.2026 -
Tom Gaal St. Gallen Actif 117 / 122 40% 1 04.11.2026 -
Isaac Schmidt Young Boys Actif 119 / 127 40% 1 04.11.2026 -
Jordy Makengo SC Freiburg Actif 129 / 138 40% 1 02.11.2026 -
Bendegúz Bolla Rapid Wien Actif 131 / 128 40% 1 05.10.2026 -
Benjamin Böckle Altach Actif 109 / 118 40% 1 05.10.2026 -
Youssoufa Moukoko FC Copenhagen Actif 136 / 131 40% 1 31.08.2026 -
Ryan Gauld Vancouver Whitecaps Actif 127 / 118 40% 1 26.08.2026 -
Julian Niehues Heidenheim Actif 115 / 118 40% 1 01.08.2026 -